PWSweather.com
Personal Weather Stations
Station Observations
BREAKEY01
Lévis, Breakeyville, QC G0S 1E1

LévisBreakeyville, QC G0S 1E1

Lat: 46.681, Lon: -71.224

Elevation: 328

Station Type: Davis Vantage Pro2

http://www.meteobreakey.webou.net/topic/index.php

Latest ConditionsUpdated 5:37:04 AM EDT Wednesday, May 27, 2015
Currently Today's Max Today's Min Today's Average
Temperature 62.2°F16.8°C 72.1°F22.3°C 62.1°F16.7°C 65.5°F18.6°C
Dew Point 60.4°F15.8°C 64.6°F18.1°C 59.9°F15.5°C 61.9°F16.6°C
Winds Calm Calm 2.9 mph N4.7 kmh N - 1.0 mph 1.6 kmh
Wind Gusts -- 4.0 mph6.4 kmh - -
Humidity 94% 94% 77% 88%
Pressure 29.98 in1015.2 mb 29.98 in1015.2 mb 29.97 in1014.9 mb -
Hour Temp Dew Point Humidity Winds Wind Gusts Pressure Precip Precip Rate Daily Precip Total
05:37 AM 62.2°F16.8°C 60.4°F15.8°C 94% Calm Calm -- 29.98 in1015.2 mb - 0.00 in0.0 mm 0.00 in0.0 mm
05:32 AM 62.2°F16.8°C 60.3°F15.7°C 93% Calm Calm -- 29.98 in1015.2 mb - 0.00 in0.0 mm 0.00 in0.0 mm
05:27 AM 62.2°F16.8°C 60.4°F15.8°C 94% Calm Calm -- 29.98 in1015.2 mb - 0.00 in0.0 mm 0.00 in0.0 mm
05:22 AM 62.1°F16.7°C 60.1°F15.6°C 93% Calm Calm -- 29.98 in1015.2 mb - 0.00 in0.0 mm 0.00 in0.0 mm
05:17 AM 62.1°F16.7°C 60.1°F15.6°C 93% Calm Calm -- 29.98 in1015.2 mb - 0.00 in0.0 mm 0.00 in0.0 mm
05:12 AM 62.1°F16.7°C 60.1°F15.6°C 93% Calm Calm -- 29.98 in1015.2 mb - 0.00 in0.0 mm 0.00 in0.0 mm
05:07 AM 62.1°F16.7°C 60.1°F15.6°C 93% Calm Calm -- 29.98 in1015.2 mb - 0.00 in0.0 mm 0.00 in0.0 mm
05:02 AM 62.1°F16.7°C 60.1°F15.6°C 93% Calm Calm -- 29.98 in1015.2 mb - 0.00 in0.0 mm 0.00 in0.0 mm
04:57 AM 62.1°F16.7°C 60.1°F15.6°C 93% Calm Calm -- 29.98 in1015.2 mb - 0.00 in0.0 mm 0.00 in0.0 mm
04:52 AM 62.1°F16.7°C 60.1°F15.6°C 93% Calm Calm -- 29.98 in1015.2 mb - 0.00 in0.0 mm 0.00 in0.0 mm
04:47 AM 62.1°F16.7°C 60.1°F15.6°C 93% Calm Calm -- 29.98 in1015.2 mb - 0.00 in0.0 mm 0.00 in0.0 mm
04:42 AM 62.2°F16.8°C 60.3°F15.7°C 93% Calm Calm -- 29.97 in1014.9 mb - 0.00 in0.0 mm 0.00 in0.0 mm
04:37 AM 62.2°F16.8°C 60.3°F15.7°C 93% Calm Calm -- 29.97 in1014.9 mb - 0.00 in0.0 mm 0.00 in0.0 mm
04:32 AM 62.2°F16.8°C 60.3°F15.7°C 93% Calm Calm 0.9 mph1.4 kmh 29.97 in1014.9 mb - 0.00 in0.0 mm 0.00 in0.0 mm
04:27 AM 62.2°F16.8°C 59.9°F15.5°C 92% 0.9 mph S1.4 kmh S -- 29.97 in1014.9 mb - 0.00 in0.0 mm 0.00 in0.0 mm
04:22 AM 62.4°F16.9°C 60.1°F15.6°C 92% 0.9 mph S1.4 kmh S -- 29.97 in1014.9 mb - 0.00 in0.0 mm 0.00 in0.0 mm
04:17 AM 62.4°F16.9°C 60.1°F15.6°C 92% 2.0 mph S3.2 kmh S 0.9 mph1.4 kmh 29.97 in1014.9 mb - 0.00 in0.0 mm 0.00 in0.0 mm
04:12 AM 62.4°F16.9°C 60.1°F15.6°C 92% 2.0 mph S3.2 kmh S 2.9 mph4.7 kmh 29.97 in1014.9 mb - 0.00 in0.0 mm 0.00 in0.0 mm
04:07 AM 62.6°F17.0°C 60.3°F15.7°C 92% 0.9 mph S1.4 kmh S 2.9 mph4.7 kmh 29.97 in1014.9 mb - 0.00 in0.0 mm 0.00 in0.0 mm
04:02 AM 62.8°F17.1°C 60.1°F15.6°C 91% 0.9 mph S1.4 kmh S 0.9 mph1.4 kmh 29.97 in1014.9 mb - 0.00 in0.0 mm 0.00 in0.0 mm
03:57 AM 63.0°F17.2°C 60.3°F15.7°C 91% 2.0 mph S3.2 kmh S 0.9 mph1.4 kmh 29.97 in1014.9 mb - 0.00 in0.0 mm 0.00 in0.0 mm
03:52 AM 63.3°F17.4°C 60.6°F15.9°C 91% 2.0 mph S3.2 kmh S 0.9 mph1.4 kmh 29.97 in1014.9 mb - 0.00 in0.0 mm 0.00 in0.0 mm
03:47 AM 63.5°F17.5°C 60.8°F16.0°C 91% 0.9 mph S1.4 kmh S 0.9 mph1.4 kmh 29.97 in1014.9 mb - 0.00 in0.0 mm 0.00 in0.0 mm
03:42 AM 63.7°F17.6°C 60.6°F15.9°C 90% 0.9 mph S1.4 kmh S 0.9 mph1.4 kmh 29.97 in1014.9 mb - 0.00 in0.0 mm 0.00 in0.0 mm
03:37 AM 63.9°F17.7°C 60.8°F16.0°C 90% Calm Calm 2.0 mph3.2 kmh 29.97 in1014.9 mb - 0.00 in0.0 mm 0.00 in0.0 mm
03:32 AM 64.2°F17.9°C 61.2°F16.2°C 90% Calm Calm 0.9 mph1.4 kmh 29.97 in1014.9 mb - 0.00 in0.0 mm 0.00 in0.0 mm
03:27 AM 64.4°F18.0°C 61.2°F16.2°C 89% Calm Calm -- 29.97 in1014.9 mb - 0.00 in0.0 mm 0.00 in0.0 mm
03:22 AM 64.6°F18.1°C 61.3°F16.3°C 89% 0.9 mph S1.4 kmh S -- 29.97 in1014.9 mb - 0.00 in0.0 mm 0.00 in0.0 mm
03:17 AM 64.8°F18.2°C 61.5°F16.4°C 89% 0.9 mph S1.4 kmh S -- 29.98 in1015.2 mb - 0.00 in0.0 mm 0.00 in0.0 mm
03:12 AM 65.1°F18.4°C 61.5°F16.4°C 88% 0.9 mph S1.4 kmh S 2.0 mph3.2 kmh 29.98 in1015.2 mb - 0.00 in0.0 mm 0.00 in0.0 mm
03:07 AM 65.5°F18.6°C 61.9°F16.6°C 88% 2.0 mph S3.2 kmh S 2.0 mph3.2 kmh 29.97 in1014.9 mb - 0.00 in0.0 mm 0.00 in0.0 mm
03:02 AM 65.7°F18.7°C 62.1°F16.7°C 88% 2.0 mph S3.2 kmh S 2.0 mph3.2 kmh 29.97 in1014.9 mb - 0.00 in0.0 mm 0.00 in0.0 mm
02:57 AM 65.8°F18.8°C 62.2°F16.8°C 88% 2.0 mph S3.2 kmh S 2.0 mph3.2 kmh 29.97 in1014.9 mb - 0.00 in0.0 mm 0.00 in0.0 mm
02:52 AM 66.0°F18.9°C 62.1°F16.7°C 87% 2.0 mph S3.2 kmh S 2.0 mph3.2 kmh 29.97 in1014.9 mb - 0.00 in0.0 mm 0.00 in0.0 mm
02:47 AM 66.2°F19.0°C 62.2°F16.8°C 87% 0.9 mph SSW1.4 kmh SSW 2.9 mph4.7 kmh 29.97 in1014.9 mb - 0.00 in0.0 mm 0.00 in0.0 mm
02:42 AM 66.4°F19.1°C 62.4°F16.9°C 87% 0.9 mph SW1.4 kmh SW 0.9 mph1.4 kmh 29.97 in1014.9 mb - 0.00 in0.0 mm 0.00 in0.0 mm
02:37 AM 66.4°F19.1°C 62.4°F16.9°C 87% 0.9 mph SW1.4 kmh SW 0.9 mph1.4 kmh 29.97 in1014.9 mb - 0.00 in0.0 mm 0.00 in0.0 mm
02:32 AM 66.6°F19.2°C 62.6°F17.0°C 87% 0.9 mph SW1.4 kmh SW 0.9 mph1.4 kmh 29.97 in1014.9 mb - 0.00 in0.0 mm 0.00 in0.0 mm
02:27 AM 66.6°F19.2°C 63.0°F17.2°C 88% 2.0 mph SSW3.2 kmh SSW 0.9 mph1.4 kmh 29.97 in1014.9 mb - 0.00 in0.0 mm 0.00 in0.0 mm
02:22 AM 66.4°F19.1°C 62.8°F17.1°C 88% 2.0 mph SSW3.2 kmh SSW 0.9 mph1.4 kmh 29.97 in1014.9 mb - 0.00 in0.0 mm 0.00 in0.0 mm
02:17 AM 66.0°F18.9°C 62.6°F17.0°C 89% 2.0 mph SSW3.2 kmh SSW 0.9 mph1.4 kmh 29.97 in1014.9 mb - 0.00 in0.0 mm 0.00 in0.0 mm
02:12 AM 66.0°F18.9°C 62.6°F17.0°C 89% 2.0 mph SW3.2 kmh SW 2.0 mph3.2 kmh 29.97 in1014.9 mb - 0.00 in0.0 mm 0.00 in0.0 mm
02:07 AM 65.8°F18.8°C 62.8°F17.1°C 90% 2.0 mph SSW3.2 kmh SSW -- 29.97 in1014.9 mb - 0.00 in0.0 mm 0.00 in0.0 mm
02:02 AM 65.8°F18.8°C 62.8°F17.1°C 90% 2.0 mph SW3.2 kmh SW 2.9 mph4.7 kmh 29.98 in1015.2 mb - 0.00 in0.0 mm 0.00 in0.0 mm
01:57 AM 65.8°F18.8°C 62.4°F16.9°C 89% 2.0 mph S3.2 kmh S 2.9 mph4.7 kmh 29.98 in1015.2 mb - 0.00 in0.0 mm 0.00 in0.0 mm
01:52 AM 65.8°F18.8°C 62.4°F16.9°C 89% 2.0 mph S3.2 kmh S 2.0 mph3.2 kmh 29.98 in1015.2 mb - 0.00 in0.0 mm 0.00 in0.0 mm
01:47 AM 66.0°F18.9°C 62.6°F17.0°C 89% 0.9 mph S1.4 kmh S 4.0 mph6.4 kmh 29.98 in1015.2 mb - 0.00 in0.0 mm 0.00 in0.0 mm
01:42 AM 66.4°F19.1°C 63.0°F17.2°C 89% Calm Calm 0.9 mph1.4 kmh 29.98 in1015.2 mb - 0.00 in0.0 mm 0.00 in0.0 mm
01:37 AM 66.4°F19.1°C 63.0°F17.2°C 89% 0.9 mph S1.4 kmh S -- 29.98 in1015.2 mb - 0.00 in0.0 mm 0.00 in0.0 mm
01:32 AM 66.4°F19.1°C 63.0°F17.2°C 89% 2.0 mph S3.2 kmh S 0.9 mph1.4 kmh 29.98 in1015.2 mb - 0.00 in0.0 mm 0.00 in0.0 mm
01:27 AM 66.6°F19.2°C 63.0°F17.2°C 88% 2.0 mph S3.2 kmh S 0.9 mph1.4 kmh 29.98 in1015.2 mb - 0.00 in0.0 mm 0.00 in0.0 mm
01:22 AM 66.7°F19.3°C 62.8°F17.1°C 87% 2.0 mph S3.2 kmh S 0.9 mph1.4 kmh 29.98 in1015.2 mb - 0.00 in0.0 mm 0.00 in0.0 mm
01:17 AM 67.1°F19.5°C 63.1°F17.3°C 87% 2.0 mph S3.2 kmh S 2.9 mph4.7 kmh 29.98 in1015.2 mb - 0.00 in0.0 mm 0.00 in0.0 mm
01:12 AM 67.3°F19.6°C 63.3°F17.4°C 87% 0.9 mph S1.4 kmh S 2.9 mph4.7 kmh 29.98 in1015.2 mb - 0.00 in0.0 mm 0.00 in0.0 mm
01:07 AM 67.5°F19.7°C 63.1°F17.3°C 86% 2.0 mph S3.2 kmh S -- 29.97 in1014.9 mb - 0.00 in0.0 mm 0.00 in0.0 mm
01:02 AM 67.6°F19.8°C 63.3°F17.4°C 86% 2.0 mph S3.2 kmh S 4.0 mph6.4 kmh 29.98 in1015.2 mb - 0.00 in0.0 mm 0.00 in0.0 mm
12:57 AM 67.8°F19.9°C 63.1°F17.3°C 85% 2.0 mph S3.2 kmh S 2.9 mph4.7 kmh 29.98 in1015.2 mb - 0.00 in0.0 mm 0.00 in0.0 mm
12:52 AM 68.4°F20.2°C 63.3°F17.4°C 84% 2.0 mph SSE3.2 kmh SSE 0.9 mph1.4 kmh 29.97 in1014.9 mb - 0.00 in0.0 mm 0.00 in0.0 mm
12:47 AM 68.7°F20.4°C 63.3°F17.4°C 83% 0.9 mph SSE1.4 kmh SSE -- 29.97 in1014.9 mb - 0.00 in0.0 mm 0.00 in0.0 mm
12:42 AM 69.1°F20.6°C 63.3°F17.4°C 82% Calm Calm -- 29.98 in1015.2 mb - 0.00 in0.0 mm 0.00 in0.0 mm
12:37 AM 69.4°F20.8°C 63.3°F17.4°C 81% Calm Calm -- 29.98 in1015.2 mb - 0.00 in0.0 mm 0.00 in0.0 mm
12:32 AM 70.0°F21.1°C 63.5°F17.5°C 80% Calm Calm -- 29.97 in1014.9 mb - 0.00 in0.0 mm 0.00 in0.0 mm
12:27 AM 70.3°F21.3°C 63.5°F17.5°C 79% Calm Calm -- 29.98 in1015.2 mb - 0.00 in0.0 mm 0.00 in0.0 mm
12:22 AM 70.9°F21.6°C 63.7°F17.6°C 78% Calm Calm -- 29.97 in1014.9 mb - 0.00 in0.0 mm 0.00 in0.0 mm
12:17 AM 71.2°F21.8°C 64.0°F17.8°C 78% Calm Calm -- 29.97 in1014.9 mb - 0.00 in0.0 mm 0.00 in0.0 mm
12:12 AM 71.4°F21.9°C 63.9°F17.7°C 77% 2.0 mph N3.2 kmh N -- 29.97 in1014.9 mb - 0.00 in0.0 mm 0.00 in0.0 mm
12:07 AM 72.0°F22.2°C 64.4°F18.0°C 77% 2.9 mph N4.7 kmh N 0.9 mph1.4 kmh 29.97 in1014.9 mb - 0.00 in0.0 mm 0.00 in0.0 mm
12:02 AM 72.1°F22.3°C 64.6°F18.1°C 77% 2.0 mph NE3.2 kmh NE 2.9 mph4.7 kmh 29.97 in1014.9 mb - 0.00 in0.0 mm 0.44 in11.2 mm